createdAt,value
2018-07-02T00:00:18.583Z,939.61
2018-07-02T00:01:26.704Z,939.64
2018-07-02T00:02:34.658Z,939.64
2018-07-02T00:03:42.714Z,939.63
2018-07-02T00:04:50.905Z,939.58
2018-07-02T00:05:58.878Z,939.60
2018-07-02T00:07:06.906Z,939.58
2018-07-02T00:08:14.996Z,939.59
2018-07-02T00:09:23.048Z,939.58
2018-07-02T00:10:31.240Z,939.53
2018-07-02T00:11:39.189Z,939.52
2018-07-02T00:12:47.223Z,939.53
2018-07-02T00:13:55.320Z,939.52
2018-07-02T00:15:03.392Z,939.48
2018-07-02T00:16:11.559Z,939.49
2018-07-02T00:17:19.577Z,939.49
2018-07-02T00:18:27.561Z,939.46
2018-07-02T00:19:35.673Z,939.44
2018-07-02T00:20:43.729Z,939.43
2018-07-02T00:21:51.909Z,939.40
2018-07-02T00:22:59.864Z,939.42
2018-07-02T00:24:07.927Z,939.38
2018-07-02T00:25:15.993Z,939.36
2018-07-02T00:26:24.056Z,939.41
2018-07-02T00:27:32.176Z,939.36
2018-07-02T00:28:40.197Z,939.34
2018-07-02T00:29:48.254Z,939.36
2018-07-02T00:30:56.334Z,939.26
2018-07-02T00:32:04.406Z,939.31
2018-07-02T00:33:12.534Z,939.29
2018-07-02T00:34:20.526Z,939.37
2018-07-02T00:35:28.586Z,939.33
2018-07-02T00:36:36.651Z,939.35
2018-07-02T00:37:44.771Z,939.35
2018-07-02T00:38:52.791Z,939.32
2018-07-02T00:40:00.861Z,939.35
2018-07-02T00:41:08.932Z,939.37
2018-07-02T00:42:16.960Z,939.35
2018-07-02T00:43:25.176Z,939.39
2018-07-02T00:44:33.117Z,939.40
2018-07-02T00:45:41.196Z,939.36
2018-07-02T00:46:49.259Z,939.38
2018-07-02T00:47:57.336Z,939.38
2018-07-02T00:49:05.433Z,939.39
2018-07-02T00:50:13.451Z,939.38
2018-07-02T00:51:21.508Z,939.34
2018-07-02T00:52:29.575Z,939.44
2018-07-02T00:53:37.628Z,939.34
2018-07-02T00:54:45.830Z,939.39
2018-07-02T00:55:53.773Z,939.39
2018-07-02T00:57:01.842Z,939.38
2018-07-02T00:58:09.919Z,939.39
2018-07-02T00:59:17.985Z,939.38
2018-07-02T01:00:26.145Z,939.33
2018-07-02T01:01:34.109Z,939.35
2018-07-02T01:02:42.223Z,939.37
2018-07-02T01:03:50.248Z,939.37
2018-07-02T01:04:58.304Z,939.37
2018-07-02T01:06:06.497Z,939.33
2018-07-02T01:07:14.441Z,939.32
2018-07-02T01:08:22.514Z,939.33
2018-07-02T01:09:30.563Z,939.31
2018-07-02T01:10:38.643Z,939.30
2018-07-02T01:11:46.803Z,939.32
2018-07-02T01:12:54.759Z,939.29
2018-07-02T01:14:02.829Z,939.29
2018-07-02T01:15:10.901Z,939.29
2018-07-02T01:16:18.969Z,939.29
2018-07-02T01:17:27.051Z,939.27
2018-07-02T01:18:35.101Z,939.26
2018-07-02T01:19:43.175Z,939.25
2018-07-02T01:20:51.226Z,939.28
2018-07-02T01:21:59.315Z,939.27
2018-07-02T01:23:07.381Z,939.28
2018-07-02T01:24:15.412Z,939.28
2018-07-02T01:25:23.494Z,939.29
2018-07-02T01:26:31.550Z,939.26
2018-07-02T01:27:39.663Z,939.23
2018-07-02T01:28:47.705Z,939.22
2018-07-02T01:29:55.768Z,939.19
2018-07-02T01:31:03.830Z,939.22
2018-07-02T01:32:11.888Z,939.20
2018-07-02T01:33:20.064Z,939.20
2018-07-02T01:34:28.013Z,939.16
2018-07-02T01:35:36.091Z,939.17
2018-07-02T01:36:44.157Z,939.13
2018-07-02T01:37:52.226Z,939.15
2018-07-02T01:39:00.393Z,939.18
2018-07-02T01:40:08.345Z,939.18
2018-07-02T01:41:16.421Z,939.16
2018-07-02T01:42:24.482Z,939.20
2018-07-02T01:43:32.545Z,939.20
2018-07-02T01:44:40.663Z,939.17
2018-07-02T01:45:48.679Z,939.15
2018-07-02T01:46:56.736Z,939.13
2018-07-02T01:48:04.813Z,939.14
2018-07-02T01:49:12.993Z,939.12
2018-07-02T01:50:21.075Z,939.16
2018-07-02T01:51:29.027Z,939.17
2018-07-02T01:52:37.059Z,939.22
2018-07-02T01:53:45.159Z,939.15
2018-07-02T01:54:53.232Z,939.16
2018-07-02T01:56:01.404Z,939.15
2018-07-02T01:57:09.358Z,939.16
2018-07-02T01:58:17.404Z,939.15
2018-07-02T01:59:25.491Z,939.19
2018-07-02T02:00:33.556Z,939.21
2018-07-02T02:01:41.718Z,939.20
2018-07-02T02:02:49.693Z,939.24
2018-07-02T02:03:57.735Z,939.24
2018-07-02T02:05:05.924Z,939.25
2018-07-02T02:06:13.893Z,939.19
2018-07-02T02:07:22.075Z,939.21
2018-07-02T02:08:30.014Z,939.18
2018-07-02T02:09:38.090Z,939.17
2018-07-02T02:10:46.160Z,939.17
2018-07-02T02:11:54.212Z,939.19
2018-07-02T02:13:02.340Z,939.17
2018-07-02T02:14:10.337Z,939.25
2018-07-02T02:15:18.414Z,939.27
2018-07-02T02:16:26.485Z,939.19
2018-07-02T02:17:34.587Z,939.24
2018-07-02T02:18:42.614Z,939.21
2018-07-02T02:19:50.674Z,939.20
2018-07-02T02:20:58.788Z,939.20
2018-07-02T02:22:06.801Z,939.20
2018-07-02T02:23:14.937Z,939.22
2018-07-02T02:24:22.937Z,939.22
2018-07-02T02:25:31.007Z,939.19
2018-07-02T02:26:39.075Z,939.15
2018-07-02T02:27:47.158Z,939.16
2018-07-02T02:28:55.202Z,939.13
2018-07-02T02:30:03.263Z,939.13
2018-07-02T02:31:11.334Z,939.11
2018-07-02T02:32:19.406Z,939.10
2018-07-02T02:33:27.444Z,939.10
2018-07-02T02:34:35.536Z,939.10
2018-07-02T02:35:43.584Z,939.10
2018-07-02T02:36:51.781Z,939.09
2018-07-02T02:37:59.861Z,939.08
2018-07-02T02:39:07.808Z,939.10
2018-07-02T02:40:15.871Z,939.10
2018-07-02T02:41:23.932Z,939.07
2018-07-02T02:42:32.014Z,939.09
2018-07-02T02:43:40.174Z,939.12
2018-07-02T02:44:48.147Z,939.13
2018-07-02T02:45:56.199Z,939.12
2018-07-02T02:47:04.269Z,939.14
2018-07-02T02:48:12.347Z,939.15
2018-07-02T02:49:20.502Z,939.15
2018-07-02T02:50:28.471Z,939.18
2018-07-02T02:51:36.532Z,939.13
2018-07-02T02:52:44.646Z,939.17
2018-07-02T02:53:52.672Z,939.15
2018-07-02T02:55:00.858Z,939.19
2018-07-02T02:56:08.800Z,939.14
2018-07-02T02:57:16.851Z,939.22
2018-07-02T02:58:24.994Z,939.21
2018-07-02T02:59:33.004Z,939.17
2018-07-02T03:00:41.194Z,939.16
2018-07-02T03:01:49.133Z,939.13
2018-07-02T03:02:57.184Z,939.20
2018-07-02T03:04:05.297Z,939.16
2018-07-02T03:05:13.333Z,939.15
2018-07-02T03:06:21.457Z,939.13
2018-07-02T03:07:29.532Z,939.17
2018-07-02T03:08:37.508Z,939.20
2018-07-02T03:09:45.658Z,939.24
2018-07-02T03:10:53.664Z,939.22
2018-07-02T03:12:01.857Z,939.27
2018-07-02T03:13:09.796Z,939.25
2018-07-02T03:14:17.865Z,939.25
2018-07-02T03:15:25.929Z,939.26
2018-07-02T03:16:33.995Z,939.24
2018-07-02T03:17:42.113Z,939.25
2018-07-02T03:18:50.151Z,939.22
2018-07-02T03:19:58.212Z,939.25
2018-07-02T03:21:06.286Z,939.20
2018-07-02T03:22:14.336Z,939.28
2018-07-02T03:23:22.523Z,939.21
2018-07-02T03:24:30.467Z,939.20
2018-07-02T03:25:38.522Z,939.16
2018-07-02T03:26:46.577Z,939.17
2018-07-02T03:27:54.666Z,939.19
2018-07-02T03:29:02.852Z,939.22
2018-07-02T03:30:10.803Z,939.20
2018-07-02T03:31:18.859Z,939.19
2018-07-02T03:32:26.911Z,939.25
2018-07-02T03:33:34.996Z,939.23
2018-07-02T03:34:43.182Z,939.28
2018-07-02T03:35:51.118Z,939.24
2018-07-02T03:36:59.197Z,939.25
2018-07-02T03:38:07.235Z,939.27
2018-07-02T03:39:15.365Z,939.23
2018-07-02T03:40:23.497Z,939.18
2018-07-02T03:41:31.453Z,939.18
2018-07-02T03:42:39.531Z,939.16
2018-07-02T03:43:47.577Z,939.21
2018-07-02T03:44:55.661Z,939.24
2018-07-02T03:46:03.838Z,939.24
2018-07-02T03:47:11.789Z,939.31
2018-07-02T03:48:19.856Z,939.26
2018-07-02T03:49:27.931Z,939.26
2018-07-02T03:50:35.996Z,939.25
2018-07-02T03:51:44.107Z,939.20
2018-07-02T03:52:52.127Z,939.20
2018-07-02T03:54:01.962Z,939.15
2018-07-02T03:55:08.357Z,939.16
2018-07-02T03:56:16.309Z,939.15
2018-07-02T03:57:24.498Z,939.19
2018-07-02T03:58:32.444Z,939.15
2018-07-02T03:59:40.522Z,939.16
2018-07-02T04:00:50.598Z,939.17
2018-07-02T04:01:58.659Z,939.18
2018-07-02T04:03:06.766Z,939.15
2018-07-02T04:04:14.794Z,939.20
2018-07-02T04:05:22.857Z,939.17
2018-07-02T04:06:30.906Z,939.17
2018-07-02T04:07:39.127Z,939.14
2018-07-02T04:08:47.101Z,939.14
2018-07-02T04:09:55.104Z,939.16
2018-07-02T04:11:03.240Z,939.18
2018-07-02T04:12:11.363Z,939.22
2018-07-02T04:13:19.360Z,939.21
2018-07-02T04:14:27.355Z,939.20
2018-07-02T04:15:35.449Z,939.21
2018-07-02T04:16:43.511Z,939.21
2018-07-02T04:17:51.696Z,939.21
2018-07-02T04:18:59.655Z,939.21
2018-07-02T04:20:07.687Z,939.22
2018-07-02T04:21:15.775Z,939.20
2018-07-02T04:22:24.185Z,939.20
2018-07-02T04:23:31.952Z,939.21
2018-07-02T04:24:40.621Z,939.22
2018-07-02T04:25:48.047Z,939.19
2018-07-02T04:26:56.229Z,939.16
2018-07-02T04:28:04.175Z,939.19
2018-07-02T04:29:12.346Z,939.20
2018-07-02T04:30:20.294Z,939.23
2018-07-02T04:31:28.452Z,939.22
2018-07-02T04:32:36.447Z,939.22
2018-07-02T04:33:44.495Z,939.22
2018-07-02T04:34:52.665Z,939.21
2018-07-02T04:36:01.218Z,939.24
2018-07-02T04:37:08.690Z,939.25
2018-07-02T04:38:16.741Z,939.24
2018-07-02T04:39:24.829Z,939.26
2018-07-02T04:40:33.013Z,939.28
2018-07-02T04:41:40.970Z,939.22
2018-07-02T04:42:49.133Z,939.19
2018-07-02T04:43:57.071Z,939.20
2018-07-02T04:45:05.198Z,939.24
2018-07-02T04:46:13.322Z,939.21
2018-07-02T04:47:21.281Z,939.23
2018-07-02T04:48:29.347Z,939.19
2018-07-02T04:49:37.388Z,939.20
2018-07-02T04:50:45.475Z,939.25
2018-07-02T04:51:53.667Z,939.23
2018-07-02T04:53:04.036Z,939.24
2018-07-02T04:54:12.714Z,939.24
2018-07-02T04:55:20.789Z,939.27
2018-07-02T04:56:28.851Z,939.27
2018-07-02T04:57:36.950Z,939.27
2018-07-02T04:58:44.974Z,939.27
2018-07-02T04:59:53.042Z,939.36
2018-07-02T05:01:01.102Z,939.38
2018-07-02T05:02:09.179Z,939.33
2018-07-02T05:03:17.272Z,939.41
2018-07-02T05:04:25.310Z,939.42
2018-07-02T05:05:33.360Z,939.43
2018-07-02T05:06:41.435Z,939.40
2018-07-02T05:07:49.546Z,939.44
2018-07-02T05:08:57.555Z,939.49
2018-07-02T05:10:05.633Z,939.42
2018-07-02T05:11:13.703Z,939.44
2018-07-02T05:12:21.768Z,939.45
2018-07-02T05:13:29.843Z,939.39
2018-07-02T05:14:37.892Z,939.47
2018-07-02T05:15:45.975Z,939.42
2018-07-02T05:16:54.039Z,939.43
2018-07-02T05:18:02.159Z,939.38
2018-07-02T05:19:10.163Z,939.45
2018-07-02T05:20:18.227Z,939.41
2018-07-02T05:21:26.295Z,939.43
2018-07-02T05:22:34.509Z,939.46
2018-07-02T05:23:42.436Z,939.47
2018-07-02T05:24:50.498Z,939.47
2018-07-02T05:25:58.584Z,939.46
2018-07-02T05:27:06.626Z,939.45
2018-07-02T05:28:14.812Z,939.45
2018-07-02T05:29:22.751Z,939.41
2018-07-02T05:30:30.827Z,939.45
2018-07-02T05:31:38.907Z,939.47
2018-07-02T05:32:46.941Z,939.43
2018-07-02T05:33:55.056Z,939.43
2018-07-02T05:35:03.096Z,939.47
2018-07-02T05:36:11.165Z,939.45
2018-07-02T05:37:19.226Z,939.42
2018-07-02T05:38:27.268Z,939.41
2018-07-02T05:39:35.469Z,939.42
2018-07-02T05:40:43.425Z,939.44
2018-07-02T05:41:51.492Z,939.38
2018-07-02T05:42:59.605Z,939.40
2018-07-02T05:44:07.616Z,939.46
2018-07-02T05:45:15.807Z,939.42
2018-07-02T05:46:23.753Z,939.45
2018-07-02T05:47:32.177Z,939.50
2018-07-02T05:48:39.945Z,939.51
2018-07-02T05:49:47.984Z,939.50
2018-07-02T05:50:56.145Z,939.59
2018-07-02T05:52:04.111Z,939.53
2018-07-02T05:53:12.167Z,939.59
2018-07-02T05:54:20.226Z,939.54
2018-07-02T05:55:28.295Z,939.56
2018-07-02T05:56:36.476Z,939.53
2018-07-02T05:57:44.480Z,939.58
2018-07-02T05:58:52.492Z,939.54
2018-07-02T06:00:00.559Z,939.54
2018-07-02T06:01:08.640Z,939.52
2018-07-02T06:02:16.753Z,939.61
2018-07-02T06:03:24.976Z,939.54
2018-07-02T06:04:32.829Z,939.57
2018-07-02T06:05:40.895Z,939.58
2018-07-02T06:06:48.977Z,939.54
2018-07-02T06:07:57.141Z,939.54
2018-07-02T06:09:05.115Z,939.56
2018-07-02T06:10:13.169Z,939.61
2018-07-02T06:11:21.244Z,939.62
2018-07-02T06:12:29.431Z,939.63
2018-07-02T06:13:37.350Z,939.71
2018-07-02T06:14:45.450Z,939.70
2018-07-02T06:15:53.500Z,939.72
2018-07-02T06:17:01.582Z,939.76
2018-07-02T06:18:09.681Z,939.72
2018-07-02T06:19:20.859Z,939.76
2018-07-02T06:20:26.313Z,939.77
2018-07-02T06:21:34.477Z,939.76
2018-07-02T06:22:42.892Z,939.73
2018-07-02T06:23:50.781Z,939.69
2018-07-02T06:24:58.736Z,939.69
2018-07-02T06:26:06.117Z,939.73
2018-07-02T06:27:14.187Z,939.76
2018-07-02T06:29:33.212Z,939.68
2018-07-02T06:30:38.417Z,939.68
2018-07-02T06:31:46.555Z,939.71
2018-07-02T06:32:54.602Z,939.69
2018-07-02T06:34:02.610Z,939.70
2018-07-02T06:35:11.173Z,939.75
2018-07-02T06:36:18.758Z,939.74
2018-07-02T06:37:26.885Z,939.75
2018-07-02T06:38:34.887Z,939.80
2018-07-02T06:39:42.957Z,939.74
2018-07-02T06:40:51.131Z,939.73
2018-07-02T06:41:59.134Z,939.76
2018-07-02T06:43:07.158Z,939.81
2018-07-02T06:44:15.231Z,939.80
2018-07-02T06:45:23.417Z,939.84
2018-07-02T06:46:31.476Z,939.88
2018-07-02T06:47:39.451Z,939.91
2018-07-02T06:48:47.512Z,939.94
2018-07-02T06:49:55.567Z,939.98
2018-07-02T06:51:03.651Z,939.97
2018-07-02T06:52:11.785Z,939.97
2018-07-02T06:53:19.798Z,940.00
2018-07-02T06:54:27.861Z,940.00
2018-07-02T06:55:35.926Z,940.01
2018-07-02T06:56:44.020Z,940.05
2018-07-02T06:57:52.159Z,940.08
2018-07-02T06:59:00.125Z,940.02
2018-07-02T07:00:08.194Z,940.06
2018-07-02T07:01:16.359Z,940.14
2018-07-02T07:02:24.322Z,940.15
2018-07-02T07:03:32.483Z,940.10
2018-07-02T07:04:40.472Z,940.16
2018-07-02T07:05:48.547Z,940.29
2018-07-02T07:06:56.593Z,940.31
2018-07-02T07:08:04.700Z,940.40
2018-07-02T07:09:12.831Z,940.49
2018-07-02T07:10:20.842Z,940.35
2018-07-02T07:11:28.879Z,940.31
2018-07-02T07:12:36.948Z,940.57
2018-07-02T07:13:45.012Z,940.69
2018-07-02T07:14:53.192Z,940.74
2018-07-02T07:16:01.159Z,940.88
2018-07-02T07:17:09.337Z,940.46
2018-07-02T07:18:17.304Z,940.86
2018-07-02T07:19:25.376Z,940.83
2018-07-02T07:20:33.542Z,940.86
2018-07-02T07:21:41.501Z,940.83
2018-07-02T07:22:49.581Z,940.69
2018-07-02T07:23:57.651Z,940.65
2018-07-02T07:25:05.718Z,940.62
2018-07-02T07:26:13.886Z,940.88
2018-07-02T07:27:21.850Z,940.65
2018-07-02T07:28:29.950Z,940.50
2018-07-02T07:29:38.037Z,940.91
2018-07-02T07:30:46.123Z,940.99
2018-07-02T07:31:54.268Z,941.19
2018-07-02T07:33:02.313Z,941.19
2018-07-02T07:34:10.329Z,941.17
2018-07-02T07:35:18.391Z,941.16
2018-07-02T07:36:26.471Z,941.21
2018-07-02T07:37:34.653Z,941.27
2018-07-02T07:38:42.610Z,941.38
2018-07-02T07:39:50.688Z,941.48
2018-07-02T07:40:58.778Z,941.55
2018-07-02T07:42:06.849Z,941.61
2018-07-02T07:43:15.019Z,941.53
2018-07-02T07:44:23.007Z,941.52
2018-07-02T07:46:45.013Z,941.67
2018-07-02T07:47:53.084Z,941.70
2018-07-02T07:49:01.273Z,941.75
2018-07-02T07:50:09.271Z,941.85
2018-07-02T07:52:28.034Z,941.93
2018-07-02T07:53:36.104Z,942.09
2018-07-02T07:54:44.284Z,942.18
2018-07-02T07:55:52.367Z,942.24
2018-07-02T07:57:00.947Z,942.28
2018-07-02T07:58:09.026Z,942.42
2018-07-02T07:59:17.114Z,942.56
2018-07-02T08:00:25.297Z,942.71
2018-07-02T08:01:33.260Z,942.84
2018-07-02T08:02:41.344Z,943.10
2018-07-02T08:03:49.419Z,943.31
2018-07-02T08:04:57.600Z,943.51
2018-07-02T08:06:05.690Z,943.75
2018-07-02T08:07:13.686Z,943.91
2018-07-02T08:08:21.729Z,944.06
2018-07-02T08:09:29.831Z,944.29
2018-07-02T08:10:37.901Z,944.53
2018-07-02T08:11:46.097Z,944.73
2018-07-02T08:12:54.102Z,944.63
2018-07-02T08:14:02.154Z,944.61
2018-07-02T08:15:10.238Z,944.99
2018-07-02T08:16:18.319Z,945.50
2018-07-02T08:17:26.499Z,945.49
2018-07-02T08:18:34.488Z,945.23
2018-07-02T08:19:42.532Z,945.18
2018-07-02T08:20:50.738Z,945.21
2018-07-02T08:21:58.732Z,945.45
2018-07-02T08:23:06.903Z,945.62
2018-07-02T08:24:14.897Z,945.75
2018-07-02T08:25:22.963Z,945.73
2018-07-02T08:26:31.045Z,945.57
2018-07-02T08:27:39.142Z,945.67
2018-07-02T08:28:47.343Z,945.73
2018-07-02T08:29:55.369Z,945.80
2018-07-02T08:31:03.383Z,945.70
2018-07-02T08:32:11.486Z,945.37
2018-07-02T08:33:19.648Z,944.69
2018-07-02T08:34:27.733Z,944.05
2018-07-02T08:35:35.706Z,944.03
2018-07-02T08:36:43.878Z,944.65
2018-07-02T08:37:51.848Z,945.27
2018-07-02T08:38:59.965Z,945.53
2018-07-02T08:40:08.131Z,945.13
2018-07-02T08:41:16.132Z,944.55
2018-07-02T08:42:24.201Z,944.23
2018-07-02T08:43:32.269Z,944.50
2018-07-02T08:44:40.376Z,944.81
2018-07-02T08:45:48.552Z,944.86
2018-07-02T08:46:56.546Z,944.80
2018-07-02T08:48:04.621Z,944.68
2018-07-02T08:49:12.705Z,944.68
2018-07-02T08:50:20.793Z,944.74
2018-07-02T08:51:28.973Z,944.83
2018-07-02T08:52:37.058Z,944.85
2018-07-02T08:53:45.045Z,944.56
2018-07-02T08:54:53.128Z,944.23
2018-07-02T08:56:01.211Z,944.21
2018-07-02T08:57:09.379Z,944.27
2018-07-02T08:58:17.412Z,944.22
2018-07-02T08:59:25.464Z,944.29
2018-07-02T09:00:33.542Z,944.29
2018-07-02T09:01:41.609Z,944.16
2018-07-02T09:02:49.801Z,944.09
2018-07-02T09:03:57.797Z,943.78
2018-07-02T09:05:05.872Z,943.44
2018-07-02T09:06:13.957Z,943.24
2018-07-02T09:07:22.029Z,943.30
2018-07-02T09:08:30.350Z,943.46
2018-07-02T09:09:38.204Z,943.31
2018-07-02T09:10:46.287Z,943.09
2018-07-02T09:11:54.375Z,943.02
2018-07-02T09:13:02.438Z,943.02
2018-07-02T09:14:10.644Z,943.04
2018-07-02T09:15:18.621Z,942.98
2018-07-02T09:16:26.716Z,942.92
2018-07-02T09:17:34.791Z,942.96
2018-07-02T09:18:42.863Z,943.00
2018-07-02T09:19:51.056Z,942.97
2018-07-02T09:20:59.044Z,942.92
2018-07-02T09:22:07.119Z,943.00
2018-07-02T09:23:15.215Z,943.06
2018-07-02T09:24:23.394Z,943.08
2018-07-02T09:25:31.456Z,943.05
2018-07-02T09:26:39.461Z,943.13
2018-07-02T09:27:47.573Z,943.10
2018-07-02T09:28:55.628Z,943.14
2018-07-02T09:30:03.785Z,942.53
2018-07-02T09:31:11.878Z,940.90
2018-07-02T09:32:19.931Z,940.39
2018-07-02T09:33:27.938Z,940.41
2018-07-02T09:34:36.043Z,940.37
2018-07-02T09:35:44.105Z,940.37
2018-07-02T09:36:52.272Z,940.32
2018-07-02T09:38:00.243Z,940.36
2018-07-02T09:39:08.380Z,940.37
2018-07-02T09:40:16.523Z,940.40
2018-07-02T09:41:24.504Z,940.39
2018-07-02T09:42:32.667Z,940.34
2018-07-02T09:43:40.670Z,940.31
2018-07-02T09:44:48.737Z,940.29
2018-07-02T09:45:56.824Z,940.29
2018-07-02T09:47:05.058Z,940.29
2018-07-02T09:48:13.080Z,940.27
2018-07-02T09:49:21.044Z,940.28
2018-07-02T09:50:29.152Z,940.28
2018-07-02T09:51:37.217Z,940.27
2018-07-02T09:52:45.287Z,940.24
2018-07-02T09:53:53.456Z,940.20
2018-07-02T09:55:01.434Z,940.19
2018-07-02T09:56:09.611Z,940.22
2018-07-02T09:57:17.601Z,940.27
2018-07-02T09:58:25.663Z,940.28
2018-07-02T09:59:33.872Z,940.24
2018-07-02T10:00:41.827Z,940.23
2018-07-02T10:01:49.926Z,940.20
2018-07-02T10:02:57.971Z,940.24
2018-07-02T10:04:06.056Z,940.26
2018-07-02T10:05:14.208Z,940.23
2018-07-02T10:06:22.213Z,940.21
2018-07-02T10:07:30.261Z,940.20
2018-07-02T10:08:38.331Z,940.24
2018-07-02T10:09:46.420Z,940.21
2018-07-02T10:10:54.585Z,940.22
2018-07-02T10:12:02.656Z,940.24
2018-07-02T10:13:10.652Z,940.18
2018-07-02T10:14:18.740Z,940.18
2018-07-02T10:15:26.776Z,940.21
2018-07-02T10:16:34.969Z,940.24
2018-07-02T10:17:42.941Z,940.21
2018-07-02T10:18:51.011Z,940.23
2018-07-02T10:19:59.083Z,940.21
2018-07-02T10:21:07.144Z,940.19
2018-07-02T10:22:15.331Z,940.16
2018-07-02T10:23:23.298Z,940.16
2018-07-02T10:24:31.384Z,940.17
2018-07-02T10:25:39.458Z,940.19
2018-07-02T10:26:47.534Z,940.19
2018-07-02T10:27:55.698Z,940.20
2018-07-02T10:29:03.743Z,940.19
2018-07-02T10:30:11.736Z,940.19
2018-07-02T10:31:19.969Z,940.20
2018-07-02T10:32:27.903Z,940.23
2018-07-02T10:33:36.070Z,940.17
2018-07-02T10:34:44.067Z,940.18
2018-07-02T10:35:52.101Z,940.16
2018-07-02T10:37:00.182Z,940.24
2018-07-02T10:38:08.264Z,940.23
2018-07-02T10:39:16.439Z,940.26
2018-07-02T10:40:24.415Z,940.30
2018-07-02T10:41:32.459Z,940.25
2018-07-02T10:42:40.584Z,940.22
2018-07-02T10:43:48.736Z,940.23
2018-07-02T10:44:56.801Z,940.21
2018-07-02T10:46:04.788Z,940.22
2018-07-02T10:47:12.854Z,940.20
2018-07-02T10:48:20.924Z,940.24
2018-07-02T10:49:28.998Z,940.26
2018-07-02T10:50:37.171Z,940.26
2018-07-02T10:51:45.149Z,940.23
2018-07-02T10:52:53.228Z,940.21
2018-07-02T10:54:01.298Z,940.26
2018-07-02T10:55:09.366Z,940.27
2018-07-02T10:56:17.542Z,940.26
2018-07-02T10:57:25.514Z,940.23
2018-07-02T10:58:33.581Z,940.27
2018-07-02T10:59:41.743Z,940.27
2018-07-02T11:00:49.731Z,940.25
2018-07-02T11:01:57.906Z,940.29
2018-07-02T11:03:05.902Z,940.28
2018-07-02T11:04:13.967Z,940.28
2018-07-02T11:05:22.018Z,940.26
2018-07-02T11:06:30.121Z,940.27
2018-07-02T11:07:38.275Z,940.26
2018-07-02T11:08:46.260Z,940.22
2018-07-02T11:09:54.325Z,940.22
2018-07-02T11:11:02.394Z,940.23
2018-07-02T11:12:10.484Z,940.23
2018-07-02T11:13:18.651Z,940.26
2018-07-02T11:14:26.628Z,940.26
2018-07-02T11:15:34.793Z,940.27
2018-07-02T11:16:42.769Z,940.27
2018-07-02T11:17:50.846Z,940.28
2018-07-02T11:18:59.008Z,940.25
2018-07-02T11:20:07.002Z,940.32
2018-07-02T11:21:15.063Z,940.29
2018-07-02T11:22:23.135Z,940.28
2018-07-02T11:23:31.213Z,940.32
2018-07-02T11:24:39.386Z,940.29
2018-07-02T11:25:47.369Z,940.24
2018-07-02T11:26:55.438Z,940.24
2018-07-02T11:28:03.511Z,940.21
2018-07-02T11:29:11.569Z,940.19
2018-07-02T11:30:19.766Z,940.17
2018-07-02T11:31:27.831Z,940.10
2018-07-02T11:32:35.803Z,940.10
2018-07-02T11:33:43.882Z,940.13
2018-07-02T11:34:51.927Z,940.14
2018-07-02T11:36:00.126Z,940.14
2018-07-02T11:37:08.098Z,940.15
2018-07-02T11:38:16.172Z,940.13
2018-07-02T11:39:24.240Z,940.11
2018-07-02T11:40:32.293Z,940.15
2018-07-02T11:41:40.535Z,940.08
2018-07-02T11:42:48.483Z,940.11
2018-07-02T11:43:56.543Z,940.09
2018-07-02T11:45:04.615Z,940.13
2018-07-02T11:46:12.684Z,940.12
2018-07-02T11:47:20.875Z,940.13
2018-07-02T11:48:28.838Z,940.11
2018-07-02T11:49:36.958Z,940.12
2018-07-02T11:50:44.984Z,940.12
2018-07-02T11:51:53.071Z,940.10
2018-07-02T11:53:01.229Z,940.11
2018-07-02T11:54:09.209Z,940.14
2018-07-02T11:55:17.277Z,940.10
2018-07-02T11:56:25.370Z,940.10
2018-07-02T11:57:33.537Z,940.10
2018-07-02T11:58:41.596Z,940.10
2018-07-02T11:59:49.584Z,940.05
2018-07-02T12:00:57.664Z,940.08
2018-07-02T12:02:05.738Z,940.09
2018-07-02T12:03:13.896Z,940.08
2018-07-02T12:04:21.954Z,940.09
2018-07-02T12:05:29.954Z,940.13
2018-07-02T12:06:38.019Z,940.11
2018-07-02T12:07:46.098Z,940.09
2018-07-02T12:08:54.175Z,940.08
2018-07-02T12:10:02.325Z,940.11
2018-07-02T12:11:10.335Z,940.13
2018-07-02T12:12:18.414Z,940.11
2018-07-02T12:13:26.486Z,940.02
2018-07-02T12:14:34.552Z,940.06
2018-07-02T12:15:42.726Z,940.01
2018-07-02T12:16:50.697Z,940.00
2018-07-02T12:17:58.774Z,940.01
2018-07-02T12:19:06.947Z,940.00
2018-07-02T12:20:14.923Z,940.02
2018-07-02T12:21:23.090Z,940.00
2018-07-02T12:22:31.071Z,939.98
2018-07-02T12:23:39.127Z,940.00
2018-07-02T12:24:47.206Z,939.99
2018-07-02T12:25:55.284Z,940.03
2018-07-02T12:27:03.449Z,939.99
2018-07-02T12:28:11.443Z,939.96
2018-07-02T12:29:19.517Z,939.95
2018-07-02T12:30:27.584Z,939.93
2018-07-02T12:31:35.660Z,939.91
2018-07-02T12:32:43.835Z,939.90
2018-07-02T12:33:51.795Z,939.89
2018-07-02T12:34:59.974Z,939.88
2018-07-02T12:36:08.092Z,939.89
2018-07-02T12:37:16.031Z,939.89
2018-07-02T12:38:24.202Z,939.91
2018-07-02T12:39:32.160Z,939.92
2018-07-02T12:40:40.262Z,939.88
2018-07-02T12:41:48.329Z,939.88
2018-07-02T12:42:56.402Z,939.95
2018-07-02T12:44:04.574Z,939.92
2018-07-02T12:45:12.531Z,939.90
2018-07-02T12:46:20.641Z,939.92
2018-07-02T12:47:28.701Z,939.89
2018-07-02T12:48:36.774Z,939.90
2018-07-02T12:49:44.929Z,939.95
2018-07-02T12:50:53.011Z,939.93
2018-07-02T12:52:00.998Z,939.96
2018-07-02T12:53:09.062Z,939.92
2018-07-02T12:54:17.239Z,939.94
2018-07-02T12:55:25.329Z,939.96
2018-07-02T12:56:33.289Z,939.95
2018-07-02T12:57:41.385Z,939.93
2018-07-02T12:58:49.445Z,939.90
2018-07-02T12:59:57.507Z,939.88
2018-07-02T13:01:05.701Z,939.88
2018-07-02T13:02:13.699Z,939.88
2018-07-02T13:03:21.715Z,939.87
2018-07-02T13:04:29.810Z,939.85
2018-07-02T13:05:37.882Z,939.85
2018-07-02T13:06:46.056Z,939.88
2018-07-02T13:07:54.037Z,939.84
2018-07-02T13:09:02.086Z,939.81
2018-07-02T13:10:10.179Z,939.80
2018-07-02T13:11:18.260Z,939.83
2018-07-02T13:12:26.431Z,939.82
2018-07-02T13:13:34.422Z,939.86
2018-07-02T13:14:42.449Z,939.86
2018-07-02T13:15:50.560Z,939.83
2018-07-02T13:16:58.633Z,939.92
2018-07-02T13:18:06.796Z,939.87
2018-07-02T13:19:14.774Z,939.83
2018-07-02T13:20:22.857Z,939.84
2018-07-02T13:21:30.929Z,939.82
2018-07-02T13:22:39.107Z,939.82
2018-07-02T13:23:47.158Z,939.84
2018-07-02T13:24:55.145Z,939.82
2018-07-02T13:26:03.207Z,939.80
2018-07-02T13:27:11.291Z,939.75
2018-07-02T13:28:19.366Z,939.76
2018-07-02T13:29:27.664Z,939.82
2018-07-02T13:30:35.524Z,939.85
2018-07-02T13:31:43.583Z,939.88
2018-07-02T13:32:51.652Z,939.90
2018-07-02T13:33:59.747Z,939.88
2018-07-02T13:35:07.921Z,939.90
2018-07-02T13:36:15.908Z,939.92
2018-07-02T13:37:24.005Z,939.87
2018-07-02T13:38:32.104Z,939.87
2018-07-02T13:39:40.117Z,939.87
2018-07-02T13:40:48.293Z,939.90
2018-07-02T13:41:56.332Z,939.81
2018-07-02T13:43:04.334Z,939.86
2018-07-02T13:44:12.387Z,939.86
2018-07-02T13:45:20.479Z,939.82
2018-07-02T13:46:28.658Z,939.83
2018-07-02T13:47:36.634Z,939.81
2018-07-02T13:48:44.721Z,939.84
2018-07-02T13:49:52.769Z,939.79
2018-07-02T13:51:00.857Z,939.78
2018-07-02T13:52:09.020Z,939.82
2018-07-02T13:53:17.009Z,939.76
2018-07-02T13:54:25.169Z,939.77
2018-07-02T13:55:33.151Z,939.78
2018-07-02T13:56:41.219Z,939.78
2018-07-02T13:57:49.389Z,939.81
2018-07-02T13:58:57.373Z,939.81
2018-07-02T14:00:05.461Z,939.82
2018-07-02T14:01:13.518Z,939.81
2018-07-02T14:02:21.576Z,939.81
2018-07-02T14:03:29.765Z,939.80
2018-07-02T14:04:37.734Z,939.79
2018-07-02T14:05:45.821Z,939.79
2018-07-02T14:06:53.902Z,939.80
2018-07-02T14:08:01.945Z,939.76
2018-07-02T14:09:10.144Z,939.74
2018-07-02T14:10:18.203Z,939.76
2018-07-02T14:11:26.176Z,939.76
2018-07-02T14:12:34.279Z,939.76